Penhold, Canada
Current Conditions -  °F | °C
As of 2:00 AM on Sunday 26 Oct 2014 (Local Time) from CYQF Reporting Station
Overcast Overcast  
Wind Chill: 32°   Ceiling: 10000
Heat Index: 36°   Visibility: 15mi
Dew Point: 27°   Wind: 5mph
Humidity: 70%   Direction: 220°SW
Pressure: 29.36"   Gusts: NA
Location:  52.13°N, 113.87°W
Report Text: CYQF 260800Z 22004KT 15SM BKN100 OVC200 02/M03 A2936 RMK AC5CI3 SLP970
Loading
Personal Weather Stations






























Interactive Weather Map
Tropical Storm Tracking
New forecast layout! Learn more

10-Day Weather Forecast

Advertisements
Track Severe Weather on mobile